createdAt,value
2018-11-25T06:01:54.481Z,33.70
2018-11-25T06:02:54.033Z,37.10
2018-11-25T06:03:54.044Z,39.30
2018-11-25T06:04:54.233Z,39.30
2018-11-25T06:05:53.893Z,39.30
2018-11-25T06:06:53.846Z,41.00
2018-11-25T06:07:53.834Z,42.80
2018-11-25T06:08:53.870Z,39.50
2018-11-25T06:09:53.846Z,39.10
2018-11-25T06:10:53.805Z,39.60
2018-11-25T06:11:53.831Z,43.90
2018-11-25T06:12:53.780Z,43.30
2018-11-25T06:13:53.766Z,42.70
2018-11-25T06:14:53.762Z,41.90
2018-11-25T06:15:53.782Z,40.50
2018-11-25T06:16:54.409Z,39.60
2018-11-25T06:17:53.770Z,40.90
2018-11-25T06:18:53.714Z,42.20
2018-11-25T06:19:53.705Z,45.60
2018-11-25T06:20:53.717Z,41.50
2018-11-25T06:21:53.687Z,43.90
2018-11-25T06:22:53.698Z,45.10
2018-11-25T06:23:53.660Z,49.50
2018-11-25T06:24:53.654Z,48.60
2018-11-25T06:25:53.659Z,51.60
2018-11-25T06:26:53.680Z,44.00
2018-11-25T06:27:53.630Z,46.60
2018-11-25T06:28:53.636Z,44.50
2018-11-25T06:31:32.782Z,47.70
2018-11-25T06:32:32.377Z,54.10
2018-11-25T06:33:32.484Z,53.60
2018-11-25T06:34:32.281Z,51.40
2018-11-25T06:35:32.213Z,52.10
2018-11-25T06:36:32.241Z,52.20
2018-11-25T06:37:32.210Z,50.70
2018-11-25T06:38:32.244Z,54.60
2018-11-25T06:39:32.168Z,55.80
2018-11-25T06:59:38.850Z,50.00
2018-11-25T07:00:38.333Z,59.00
2018-11-25T07:03:18.823Z,72.20
2018-11-25T07:04:18.342Z,66.10
2018-11-25T07:05:18.377Z,65.60
2018-11-25T07:06:20.499Z,71.70
2018-11-25T07:07:18.531Z,73.60
2018-11-25T07:08:21.041Z,69.80
2018-11-25T07:09:18.206Z,71.80
2018-11-25T07:10:18.165Z,71.00
2018-11-25T07:11:18.149Z,75.50
2018-11-25T07:12:18.217Z,66.10
2018-11-25T07:13:18.126Z,71.00
2018-11-25T07:14:18.147Z,66.80
2018-11-25T07:15:18.113Z,66.40
2018-11-25T07:16:18.101Z,71.20
2018-11-25T07:17:18.099Z,72.20
2018-11-25T07:18:18.691Z,82.20
2018-11-25T07:19:18.134Z,85.70
2018-11-25T07:20:18.075Z,82.90
2018-11-25T07:21:18.067Z,83.00
2018-11-25T07:22:18.037Z,81.30
2018-11-25T07:23:18.022Z,73.60
2018-11-25T07:24:18.194Z,85.10
2018-11-25T07:25:17.998Z,78.00
2018-11-25T07:26:18.026Z,88.00
2018-11-25T07:27:17.985Z,77.00
2018-11-25T07:28:18.817Z,75.80
2018-11-25T07:29:18.362Z,72.10
2018-11-25T08:24:00.641Z,122.20
2018-11-25T08:25:00.317Z,108.10
2018-11-25T08:26:00.249Z,109.00
2018-11-25T08:27:00.181Z,102.70
2018-11-25T08:28:00.232Z,108.10
2018-11-25T08:29:00.125Z,121.00
2018-11-25T08:30:00.069Z,111.50
2018-11-25T08:31:00.168Z,114.90
2018-11-25T08:31:59.975Z,115.80
2018-11-25T08:33:00.507Z,120.60
2018-11-25T08:34:00.114Z,131.20
2018-11-25T08:35:00.028Z,115.80
2018-11-25T08:35:59.934Z,125.70
2018-11-25T08:36:59.953Z,120.70
2018-11-25T08:37:59.995Z,105.50
2018-11-25T08:39:00.032Z,106.30
2018-11-25T08:39:59.948Z,89.70
2018-11-25T08:40:59.927Z,97.90
2018-11-25T08:41:59.870Z,85.40
2018-11-25T08:42:59.874Z,86.00
2018-11-25T08:56:50.357Z,79.70
2018-11-25T08:57:49.919Z,76.60
2018-11-25T08:58:49.982Z,77.60
2018-11-25T09:12:55.882Z,58.80
2018-11-25T09:13:52.267Z,67.10
2018-11-25T09:14:53.024Z,75.00
2018-11-25T09:15:52.115Z,70.40
2018-11-25T09:16:52.115Z,76.80
2018-11-25T09:17:52.204Z,71.40
2018-11-25T09:18:52.079Z,71.10
2018-11-25T09:19:52.089Z,69.00
2018-11-25T09:20:52.072Z,70.80
2018-11-25T09:21:52.082Z,73.10
2018-11-25T09:22:52.035Z,74.20
2018-11-25T09:23:52.047Z,70.00
2018-11-25T09:24:52.017Z,70.90
2018-11-25T09:25:52.051Z,73.10
2018-11-25T09:26:52.004Z,82.10
2018-11-25T09:27:51.981Z,73.20
2018-11-25T09:28:52.343Z,69.70
2018-11-25T09:29:51.958Z,72.60
2018-11-25T09:30:51.968Z,77.70
2018-11-25T09:31:52.595Z,76.30
2018-11-25T09:32:51.937Z,81.50
2018-11-25T09:33:51.935Z,73.90
2018-11-25T09:34:51.955Z,74.20
2018-11-25T09:35:51.902Z,78.40
2018-11-25T09:36:51.911Z,77.00
2018-11-25T09:48:20.849Z,66.30
2018-11-25T09:49:19.043Z,80.40
2018-11-25T11:01:02.402Z,50.60
2018-11-25T11:03:15.076Z,60.40
2018-11-25T11:26:16.179Z,71.20
2018-11-25T11:27:14.375Z,81.70
2018-11-25T11:28:14.450Z,76.70
2018-11-25T11:29:14.303Z,81.10
2018-11-25T11:30:14.481Z,67.30
2018-11-25T11:31:14.300Z,74.20
2018-11-25T11:32:14.266Z,74.40
2018-11-25T11:33:14.236Z,65.10
2018-11-25T11:34:14.232Z,67.50
2018-11-25T11:35:14.252Z,69.80
2018-11-25T11:36:14.204Z,64.10
2018-11-25T11:37:14.208Z,63.70
2018-11-25T11:38:14.184Z,62.20
2018-11-25T11:39:14.174Z,66.10
2018-11-25T11:40:14.197Z,64.10
2018-11-25T11:41:14.155Z,55.80
2018-11-25T11:42:14.176Z,64.00
2018-11-25T11:43:14.145Z,61.50
2018-11-25T11:44:14.133Z,70.80
2018-11-25T11:45:14.114Z,63.30
2018-11-25T11:46:14.116Z,74.40
2018-11-25T11:47:16.072Z,76.80
2018-11-25T11:48:14.526Z,78.10
2018-11-25T11:49:14.068Z,76.30
2018-11-25T11:50:14.153Z,75.90
2018-11-25T11:51:15.064Z,75.60
2018-11-25T11:52:14.034Z,79.10
2018-11-25T11:53:14.033Z,69.00
2018-11-25T11:54:17.044Z,67.00
2018-11-25T11:55:14.012Z,65.40
2018-11-25T11:56:14.473Z,68.70
2018-11-25T11:57:13.988Z,67.30
2018-11-25T11:58:13.962Z,65.40
2018-11-25T11:59:13.994Z,67.30
2018-11-25T12:00:13.978Z,63.90
2018-11-25T12:01:13.935Z,65.80
2018-11-25T12:02:13.942Z,60.40
2018-11-25T12:03:13.921Z,64.30
2018-11-25T12:04:13.905Z,64.90
2018-11-25T12:05:13.907Z,63.60
2018-11-25T12:06:13.916Z,62.80
2018-11-25T12:07:13.868Z,70.20
2018-11-25T12:08:13.878Z,71.50
2018-11-25T12:09:13.841Z,71.50
2018-11-25T12:10:13.876Z,68.90
2018-11-25T12:11:13.821Z,70.90
2018-11-25T12:12:13.820Z,68.30
2018-11-25T12:13:13.799Z,68.50
2018-11-25T12:14:13.788Z,66.00
2018-11-25T12:15:13.776Z,68.00
2018-11-25T12:16:13.779Z,62.80
2018-11-25T12:17:13.770Z,69.80
2018-11-25T12:18:13.757Z,67.30
2018-11-25T12:19:13.736Z,65.90
2018-11-25T12:20:13.725Z,62.90
2018-11-25T12:21:13.778Z,69.60
2018-11-25T12:22:13.708Z,63.30
2018-11-25T12:23:13.694Z,65.50
2018-11-25T12:24:13.697Z,60.00
2018-11-25T12:25:13.693Z,58.60
2018-11-25T12:26:13.693Z,57.50
2018-11-25T12:27:13.749Z,54.90
2018-11-25T12:28:13.643Z,53.80
2018-11-25T12:29:13.899Z,54.30
2018-11-25T12:30:13.620Z,51.20
2018-11-25T12:31:13.650Z,50.90
2018-11-25T12:32:13.611Z,49.70
2018-11-25T12:33:13.631Z,47.80
2018-11-25T12:34:13.585Z,47.90
2018-11-25T12:35:13.622Z,45.40
2018-11-25T12:37:36.172Z,41.40
2018-11-25T12:43:21.341Z,39.50
2018-11-25T12:50:15.214Z,42.20
2018-11-25T12:51:20.775Z,44.00
2018-11-25T12:52:15.347Z,45.60
2018-11-25T12:55:16.039Z,39.90
2018-11-25T12:56:15.384Z,42.80
2018-11-25T12:58:59.090Z,42.80
2018-11-25T12:59:57.820Z,41.80
2018-11-25T13:00:58.031Z,40.20
2018-11-25T13:01:57.813Z,42.80
2018-11-25T13:02:57.693Z,41.40
2018-11-25T13:03:57.654Z,39.30
2018-11-25T13:04:57.611Z,41.30
2018-11-25T13:05:57.600Z,43.20
2018-11-25T13:06:57.591Z,44.10
2018-11-25T13:07:57.580Z,44.80
2018-11-25T13:08:57.579Z,43.50
2018-11-25T13:09:57.566Z,46.00
2018-11-25T13:10:57.545Z,47.10
2018-11-25T13:11:57.556Z,41.20
2018-11-25T13:12:57.546Z,44.10
2018-11-25T13:13:57.550Z,43.10
2018-11-25T13:14:57.509Z,44.40
2018-11-25T13:15:57.490Z,41.80
2018-11-25T13:16:57.686Z,42.30
2018-11-25T13:17:57.474Z,44.90
2018-11-25T13:18:57.451Z,40.80
2018-11-25T13:19:57.508Z,42.90
2018-11-25T13:20:57.433Z,42.70
2018-11-25T13:21:57.428Z,44.90
2018-11-25T13:22:57.414Z,42.10
2018-11-25T13:23:57.410Z,53.30
2018-11-25T13:24:57.406Z,44.70
2018-11-25T13:25:57.394Z,44.60
2018-11-25T13:26:57.363Z,44.10
2018-11-25T13:27:57.351Z,46.10
2018-11-25T13:28:57.343Z,52.20
2018-11-25T13:29:57.337Z,48.80
2018-11-25T13:30:57.357Z,54.30
2018-11-25T13:31:57.311Z,58.00
2018-11-25T13:32:57.335Z,54.70
2018-11-25T13:33:57.288Z,55.00
2018-11-25T13:35:05.851Z,55.50
2018-11-25T13:35:57.511Z,56.70
2018-11-25T13:36:57.299Z,56.50
2018-11-25T13:37:57.244Z,53.30
2018-11-25T13:38:57.271Z,58.70
2018-11-25T13:39:57.220Z,64.70
2018-11-25T13:40:57.254Z,61.70
2018-11-25T13:51:43.381Z,60.00
2018-11-25T13:54:11.919Z,56.20
2018-11-25T13:55:11.498Z,56.00
2018-11-25T13:56:11.449Z,57.70
2018-11-25T13:57:11.480Z,60.10
2018-11-25T13:58:11.526Z,52.60
2018-11-25T13:59:22.724Z,59.10
2018-11-25T14:02:40.211Z,49.20
2018-11-25T14:03:50.537Z,56.50
2018-11-25T14:04:40.007Z,58.20
2018-11-25T14:05:40.170Z,53.00
2018-11-25T14:06:39.768Z,57.50
2018-11-25T14:07:39.732Z,53.60
2018-11-25T14:08:39.727Z,58.90
2018-11-25T14:09:39.776Z,56.60
2018-11-25T14:10:39.699Z,54.90
2018-11-25T14:11:39.707Z,54.70
2018-11-25T14:12:39.781Z,56.20
2018-11-25T14:13:39.702Z,53.00
2018-11-25T14:14:39.677Z,53.80
2018-11-25T14:15:39.655Z,53.80
2018-11-25T14:16:42.337Z,52.30
2018-11-25T14:17:39.689Z,57.00
2018-11-25T14:18:39.847Z,54.90
2018-11-25T14:19:39.659Z,56.80
2018-11-25T14:20:39.845Z,58.00
2018-11-25T14:21:39.679Z,57.60
2018-11-25T14:22:39.576Z,59.10
2018-11-25T14:23:39.621Z,55.00
2018-11-25T14:24:39.620Z,57.40
2018-11-25T14:25:40.594Z,54.00
2018-11-25T14:26:39.531Z,55.60
2018-11-25T14:27:40.185Z,61.10
2018-11-25T14:28:50.504Z,61.70
2018-11-25T14:29:39.617Z,58.70
2018-11-25T14:30:39.544Z,58.10
2018-11-25T14:31:39.614Z,58.30
2018-11-25T14:32:39.595Z,54.00
2018-11-25T14:36:18.091Z,44.50
2018-11-25T14:37:30.746Z,60.60
2018-11-25T14:38:17.903Z,63.90
2018-11-25T14:39:17.660Z,61.20
2018-11-25T14:41:30.409Z,63.70
2018-11-25T14:42:30.114Z,59.30
2018-11-25T14:43:30.355Z,68.40
2018-11-25T14:46:13.972Z,66.40
2018-11-25T14:56:09.943Z,47.30
2018-11-25T15:34:28.988Z,54.80
2018-11-25T15:43:37.751Z,70.00
2018-11-25T15:44:37.088Z,71.90
2018-11-25T15:45:36.987Z,76.30
2018-11-25T15:46:37.046Z,73.60
2018-11-25T15:47:37.007Z,76.50
2018-11-25T15:48:36.984Z,77.10
2018-11-25T15:49:37.010Z,70.40
2018-11-25T15:50:36.928Z,77.60
2018-11-25T15:51:37.007Z,77.20
2018-11-25T15:52:37.609Z,73.40
2018-11-25T15:53:36.913Z,80.20
2018-11-25T15:54:38.865Z,86.00
2018-11-25T15:55:36.879Z,82.10
2018-11-25T15:56:36.871Z,81.40
2018-11-25T15:57:36.909Z,85.20
2018-11-25T15:58:36.863Z,83.20
2018-11-25T15:59:36.854Z,79.70
2018-11-25T16:00:36.846Z,82.20
2018-11-25T16:01:36.944Z,80.50
2018-11-25T16:02:36.809Z,82.40
2018-11-25T16:03:36.821Z,72.20
2018-11-25T16:04:36.786Z,73.90
2018-11-25T16:05:36.773Z,71.30
2018-11-25T16:06:36.789Z,72.90
2018-11-25T16:07:36.938Z,74.10
2018-11-25T16:08:38.216Z,74.60
2018-11-25T16:09:36.722Z,67.70
2018-11-25T16:10:36.752Z,73.10
2018-11-25T16:11:36.708Z,66.00
2018-11-25T16:12:36.699Z,69.60
2018-11-25T16:13:36.701Z,66.70
2018-11-25T16:14:36.688Z,63.40
2018-11-25T16:15:36.669Z,67.90
2018-11-25T16:16:36.885Z,61.50
2018-11-25T16:17:36.644Z,58.10
2018-11-25T16:18:36.626Z,62.30
2018-11-25T16:19:36.669Z,55.90
2018-11-25T16:20:36.624Z,57.00
2018-11-25T16:21:36.590Z,60.00
2018-11-25T16:22:36.579Z,59.90
2018-11-25T16:23:36.583Z,58.60
2018-11-25T16:24:36.575Z,60.90
2018-11-25T16:25:36.558Z,58.80
2018-11-25T16:26:36.565Z,58.10
2018-11-25T16:27:36.532Z,55.90
2018-11-25T16:28:36.697Z,55.60
2018-11-25T16:29:36.529Z,55.10
2018-11-25T16:30:36.489Z,57.50
2018-11-25T16:31:36.486Z,54.50
2018-11-25T16:32:36.468Z,59.00
2018-11-25T16:33:36.462Z,56.50
2018-11-25T16:34:36.450Z,53.10
2018-11-25T16:35:36.471Z,57.10
2018-11-25T16:36:36.424Z,55.60
2018-11-25T16:37:36.421Z,55.40
2018-11-25T16:38:36.399Z,52.70
2018-11-25T16:39:36.403Z,58.50
2018-11-25T16:40:36.391Z,56.10
2018-11-25T16:41:36.388Z,60.20
2018-11-25T16:42:36.357Z,57.40
2018-11-25T16:43:36.343Z,58.30
2018-11-25T16:44:36.334Z,60.20
2018-11-25T16:45:36.353Z,62.10
2018-11-25T16:46:36.331Z,63.70
2018-11-25T16:47:36.299Z,61.70
2018-11-25T16:48:36.287Z,61.60
2018-11-25T16:49:36.281Z,62.20
2018-11-25T16:50:36.265Z,67.90
2018-11-25T16:51:36.267Z,68.50
2018-11-25T16:52:36.255Z,62.90
2018-11-25T16:53:36.238Z,67.30
2018-11-25T16:54:36.267Z,67.80
2018-11-25T16:55:36.211Z,70.20
2018-11-25T16:56:36.204Z,65.30
2018-11-25T16:57:36.191Z,73.70
2018-11-25T16:58:36.186Z,71.50
2018-11-25T16:59:36.164Z,74.30
2018-11-25T17:00:36.171Z,76.50
2018-11-25T17:01:36.144Z,72.40
2018-11-25T17:02:36.149Z,78.00
2018-11-25T17:03:36.119Z,81.10
2018-11-25T17:04:36.124Z,87.20
2018-11-25T17:05:36.098Z,89.10
2018-11-25T17:06:36.097Z,84.40
2018-11-25T17:07:36.492Z,83.80
2018-11-25T17:08:36.081Z,89.40
2018-11-25T17:09:36.060Z,87.30
2018-11-25T17:10:36.081Z,86.20
2018-11-25T17:11:36.035Z,92.60
2018-11-25T17:12:36.023Z,95.40
2018-11-25T17:13:36.050Z,90.10
2018-11-25T17:14:36.001Z,91.70
2018-11-25T17:15:36.049Z,88.80
2018-11-25T17:16:35.974Z,92.00
2018-11-25T17:17:35.978Z,92.80
2018-11-25T17:18:35.985Z,92.90
2018-11-25T17:19:35.942Z,94.70
2018-11-25T17:20:35.932Z,90.20
2018-11-25T17:21:35.920Z,92.80
2018-11-25T17:22:35.908Z,99.00
2018-11-25T17:23:35.908Z,100.60
2018-11-25T17:24:35.901Z,96.10
2018-11-25T17:25:35.874Z,103.10
2018-11-25T17:26:35.862Z,96.50
2018-11-25T17:27:35.852Z,99.60
2018-11-25T17:28:35.875Z,97.50
2018-11-25T17:29:35.839Z,97.10
2018-11-25T17:30:35.819Z,109.20
2018-11-25T17:31:35.813Z,104.40
2018-11-25T17:32:35.797Z,107.90
2018-11-25T17:33:35.790Z,103.70
2018-11-25T17:34:35.788Z,107.60
2018-11-25T17:35:35.778Z,108.60
2018-11-25T17:36:35.788Z,112.90
2018-11-25T17:37:35.740Z,108.90
2018-11-25T17:38:35.732Z,111.30
2018-11-25T17:39:35.754Z,110.00
2018-11-25T17:40:35.733Z,115.30
2018-11-25T17:41:35.718Z,104.20
2018-11-25T17:42:35.708Z,114.40
2018-11-25T17:43:35.679Z,114.10
2018-11-25T17:44:35.666Z,120.70
2018-11-25T17:45:35.665Z,126.20
2018-11-25T17:46:35.662Z,101.40
2018-11-25T17:47:36.101Z,106.80
2018-11-25T17:48:36.384Z,107.70
2018-11-25T17:49:35.611Z,106.30
2018-11-25T17:50:35.615Z,118.70
2018-11-25T17:51:35.587Z,113.90
2018-11-25T17:52:35.623Z,115.90
2018-11-25T17:53:35.576Z,109.10
2018-11-25T17:54:35.605Z,106.50
2018-11-25T17:55:35.575Z,105.50
2018-11-25T17:56:35.577Z,102.50
2018-11-25T17:57:35.521Z,104.80
2018-11-25T17:58:35.554Z,104.70
2018-11-25T17:59:35.994Z,100.00
2018-11-25T18:00:35.486Z,105.10
2018-11-25T18:01:35.550Z,101.90
2018-11-25T18:02:35.486Z,106.40
2018-11-25T18:03:35.455Z,107.90
2018-11-25T18:04:35.442Z,100.30
2018-11-25T18:05:38.945Z,94.20
2018-11-25T18:06:35.431Z,103.70
2018-11-25T18:07:35.436Z,102.90
2018-11-25T18:08:35.396Z,101.40
2018-11-25T18:09:35.386Z,100.20
2018-11-25T18:10:35.379Z,103.50
2018-11-25T18:11:35.366Z,102.40
2018-11-25T18:12:35.372Z,104.30
2018-11-25T18:13:35.351Z,104.90
2018-11-25T18:14:36.063Z,99.80
2018-11-25T18:15:35.334Z,104.50
2018-11-25T18:16:35.342Z,107.10
2018-11-25T18:17:35.331Z,103.30
2018-11-25T18:18:35.289Z,107.20
2018-11-25T18:19:35.279Z,98.20
2018-11-25T18:20:35.266Z,98.70
2018-11-25T18:21:35.258Z,100.30
2018-11-25T18:22:35.246Z,103.20
2018-11-25T18:23:35.273Z,102.80
2018-11-25T18:24:35.229Z,100.70
2018-11-25T18:25:35.269Z,98.80
2018-11-25T18:26:35.207Z,98.40
2018-11-25T18:27:35.193Z,104.90
2018-11-25T18:28:35.203Z,102.40
2018-11-25T18:29:35.242Z,106.80
2018-11-25T18:30:35.172Z,101.60
2018-11-25T18:31:35.161Z,103.20
2018-11-25T18:32:35.166Z,103.60
2018-11-25T18:33:35.133Z,98.10
2018-11-25T18:34:35.109Z,104.20
2018-11-25T18:35:35.101Z,104.00
2018-11-25T18:36:35.120Z,102.30
2018-11-25T18:37:35.105Z,103.10
2018-11-25T18:38:35.235Z,99.90
2018-11-25T18:39:35.080Z,105.70
2018-11-25T18:40:35.043Z,104.90
2018-11-25T18:41:35.051Z,113.90
2018-11-25T18:42:35.027Z,102.60
2018-11-25T18:43:35.011Z,107.30
2018-11-25T18:44:36.107Z,107.40
2018-11-25T18:45:34.988Z,111.80
2018-11-25T18:46:35.006Z,100.70
2018-11-25T18:47:34.983Z,102.10
2018-11-25T18:48:34.968Z,108.70
2018-11-25T18:49:34.942Z,109.40
2018-11-25T18:50:34.935Z,106.60
2018-11-25T18:51:34.923Z,104.70
2018-11-25T18:52:34.929Z,103.50
2018-11-25T18:53:34.901Z,104.90
2018-11-25T18:54:34.909Z,114.00
2018-11-25T18:55:34.883Z,122.50
2018-11-25T18:56:34.969Z,111.00
2018-11-25T18:57:34.891Z,108.30
2018-11-25T18:58:34.851Z,103.40
2018-11-25T18:59:34.829Z,103.60
2018-11-25T19:00:34.822Z,101.30
2018-11-25T19:01:34.835Z,104.30
2018-11-25T19:02:34.811Z,98.90
2018-11-25T19:03:34.814Z,108.00
2018-11-25T19:04:34.841Z,101.80
2018-11-25T19:05:34.787Z,102.20
2018-11-25T19:06:34.817Z,111.30
2018-11-25T19:07:34.800Z,107.70
2018-11-25T19:08:35.217Z,103.60
2018-11-25T19:09:34.762Z,103.00
2018-11-25T19:10:34.822Z,97.50
2018-11-25T19:11:34.703Z,104.00
2018-11-25T19:12:34.705Z,101.50
2018-11-25T19:13:34.714Z,101.10
2018-11-25T19:14:34.675Z,98.70
2018-11-25T19:15:34.663Z,101.50
2018-11-25T19:16:34.660Z,100.90
2018-11-25T19:17:34.664Z,101.70
2018-11-25T19:18:34.646Z,100.40
2018-11-25T19:19:34.652Z,97.40
2018-11-25T19:20:34.603Z,100.80
2018-11-25T19:21:34.599Z,98.60
2018-11-25T19:22:35.425Z,96.70
2018-11-25T19:23:34.571Z,97.50
2018-11-25T19:24:35.468Z,99.70
2018-11-25T19:25:34.552Z,100.50
2018-11-25T19:26:34.539Z,95.50
2018-11-25T19:27:34.526Z,95.60
2018-11-25T19:28:34.632Z,101.00
2018-11-25T19:29:34.548Z,96.40
2018-11-25T19:30:34.488Z,101.60
2018-11-25T19:31:34.484Z,94.20
2018-11-25T19:32:34.490Z,97.60
2018-11-25T19:33:34.462Z,94.10
2018-11-25T19:34:34.611Z,98.60
2018-11-25T19:35:34.450Z,93.90
2018-11-25T19:36:34.643Z,95.00
2018-11-25T19:37:34.414Z,94.90
2018-11-25T19:38:34.409Z,100.30
2018-11-25T19:39:34.390Z,96.30
2018-11-25T19:40:34.428Z,90.80
2018-11-25T19:41:34.369Z,95.30
2018-11-25T19:42:34.360Z,95.40
2018-11-25T19:43:34.392Z,92.10
2018-11-25T19:44:34.347Z,93.80
2018-11-25T19:45:34.414Z,96.90
2018-11-25T19:46:34.355Z,94.80
2018-11-25T19:47:34.311Z,91.10
2018-11-25T19:48:36.123Z,91.60
2018-11-25T19:49:34.291Z,95.70
2018-11-25T19:50:34.316Z,89.10
2018-11-25T19:51:34.279Z,90.30
2018-11-25T19:52:34.252Z,90.60
2018-11-25T19:53:34.477Z,95.80
2018-11-25T19:54:34.236Z,94.10
2018-11-25T19:55:34.508Z,90.00
2018-11-25T19:56:34.254Z,87.60
2018-11-25T19:57:34.225Z,91.40
2018-11-25T19:58:34.189Z,86.50
2018-11-25T19:59:34.200Z,88.50
2018-11-25T20:00:34.444Z,88.80
2018-11-25T20:05:18.992Z,77.90
2018-11-25T20:06:18.571Z,90.30
2018-11-25T20:07:18.594Z,86.60
2018-11-25T20:08:18.501Z,86.60
2018-11-25T20:09:18.386Z,88.10
2018-11-25T20:10:18.467Z,90.30
2018-11-25T20:11:18.368Z,87.80
2018-11-25T20:12:18.580Z,84.40
2018-11-25T20:13:18.353Z,88.00
2018-11-25T20:14:18.357Z,92.00
2018-11-25T20:15:18.331Z,85.80
2018-11-25T20:16:18.324Z,89.30
2018-11-25T20:17:18.581Z,85.10
2018-11-25T20:18:18.446Z,88.00
2018-11-25T20:19:18.347Z,88.10
2018-11-25T20:20:18.266Z,82.60
2018-11-25T20:21:18.359Z,86.60
2018-11-25T20:22:18.242Z,87.70
2018-11-25T20:23:18.226Z,83.90
2018-11-25T20:24:18.234Z,86.40
2018-11-25T20:25:18.336Z,82.40
2018-11-25T20:26:18.253Z,88.90
2018-11-25T20:27:18.185Z,83.30
2018-11-25T20:28:19.772Z,86.30
2018-11-25T20:29:18.312Z,84.70
2018-11-25T20:30:18.912Z,81.00
2018-11-25T20:31:18.976Z,83.40
2018-11-25T20:32:18.154Z,83.90
2018-11-25T20:33:18.197Z,80.30
2018-11-25T20:34:18.151Z,85.20
2018-11-25T20:35:18.101Z,87.90
2018-11-25T20:36:18.468Z,88.10
2018-11-25T20:37:18.272Z,81.70
2018-11-25T20:38:18.067Z,87.60
2018-11-25T20:39:18.344Z,82.20
2018-11-25T20:40:18.064Z,78.00
2018-11-25T20:41:18.038Z,86.70
2018-11-25T20:42:18.031Z,82.90
2018-11-25T20:43:18.151Z,82.60
2018-11-25T20:44:17.993Z,79.10
2018-11-25T20:45:18.024Z,78.90
2018-11-25T20:46:18.013Z,77.80
2018-11-25T20:47:18.004Z,86.20
2018-11-25T20:48:17.983Z,80.90
2018-11-25T20:49:18.042Z,83.90
2018-11-25T20:50:19.147Z,84.20
2018-11-25T21:17:16.245Z,70.50
2018-11-25T21:18:12.329Z,80.00
2018-11-25T21:19:12.312Z,82.20
2018-11-25T21:20:12.345Z,81.00
2018-11-25T21:21:12.301Z,77.10
2018-11-25T21:22:12.316Z,82.80
2018-11-25T21:23:12.289Z,78.70
2018-11-25T21:24:12.250Z,78.40
2018-11-25T21:25:12.238Z,76.80
2018-11-25T21:26:12.232Z,82.60
2018-11-25T21:28:30.296Z,74.90
2018-11-25T21:29:29.889Z,80.40
2018-11-25T21:30:29.853Z,77.30
2018-11-25T21:31:29.853Z,79.50
2018-11-25T21:32:29.864Z,77.20
2018-11-25T21:33:29.888Z,80.70
2018-11-25T21:34:29.975Z,80.70
2018-11-25T21:35:29.777Z,81.70
2018-11-25T21:36:29.813Z,80.10
2018-11-25T21:37:29.811Z,80.10
2018-11-25T21:38:29.817Z,80.30
2018-11-25T21:39:29.753Z,84.90
2018-11-25T21:40:29.710Z,80.10
2018-11-25T21:41:29.705Z,80.50
2018-11-25T22:02:08.771Z,67.90
2018-11-25T22:03:08.869Z,72.00
2018-11-25T22:04:08.551Z,76.50
2018-11-25T22:05:08.589Z,79.70
2018-11-25T22:06:09.015Z,75.50
2018-11-25T22:07:08.401Z,75.80
2018-11-25T22:08:08.485Z,75.00
2018-11-25T22:09:08.397Z,72.30
2018-11-25T22:10:08.566Z,78.40
2018-11-25T22:11:09.481Z,75.20
2018-11-25T22:41:30.944Z,72.50
2018-11-25T22:42:30.536Z,64.20
2018-11-25T22:43:30.506Z,64.20
2018-11-25T22:44:30.496Z,68.00
2018-11-25T22:45:30.493Z,65.80
2018-11-25T22:46:31.123Z,67.00
2018-11-25T22:48:31.531Z,63.00
2018-11-25T22:49:30.417Z,63.80
2018-11-25T22:50:30.441Z,62.70
2018-11-25T22:51:30.426Z,62.60
2018-11-25T22:52:30.409Z,65.30
2018-11-25T22:53:30.369Z,62.60
2018-11-25T22:54:30.350Z,66.40
2018-11-25T22:55:30.361Z,65.40
2018-11-25T22:56:30.327Z,61.30
2018-11-25T22:57:30.315Z,62.40
2018-11-25T22:58:30.318Z,63.30
2018-11-25T22:59:30.294Z,61.40
2018-11-25T23:00:30.297Z,61.60
2018-11-25T23:01:30.274Z,60.50
2018-11-25T23:02:30.259Z,60.30
2018-11-25T23:03:30.262Z,62.80
2018-11-25T23:04:30.237Z,66.40
2018-11-25T23:05:30.226Z,63.90
2018-11-25T23:06:30.233Z,64.40
2018-11-25T23:07:30.206Z,62.70
2018-11-25T23:08:30.212Z,64.80
2018-11-25T23:09:30.186Z,68.30
2018-11-25T23:10:30.183Z,67.20
2018-11-25T23:11:30.161Z,66.20
2018-11-25T23:12:30.182Z,65.20
2018-11-25T23:13:30.141Z,70.50
2018-11-25T23:14:30.144Z,72.00
2018-11-25T23:15:30.114Z,69.20
2018-11-25T23:16:30.125Z,72.30
2018-11-25T23:17:30.094Z,68.30
2018-11-25T23:18:30.110Z,68.70
2018-11-25T23:19:30.073Z,66.90
2018-11-25T23:20:30.096Z,68.50
2018-11-25T23:21:30.051Z,67.30
2018-11-25T23:22:30.038Z,69.30
2018-11-25T23:23:30.028Z,72.10
2018-11-25T23:24:30.086Z,70.10
2018-11-25T23:25:30.013Z,66.80
2018-11-25T23:26:30.030Z,68.60
2018-11-25T23:27:29.980Z,68.80
2018-11-25T23:28:29.967Z,66.70
2018-11-25T23:29:29.968Z,71.30
2018-11-25T23:30:29.969Z,65.10
2018-11-25T23:31:29.936Z,63.80
2018-11-25T23:32:29.984Z,64.80
2018-11-25T23:33:29.932Z,66.30
2018-11-25T23:34:29.905Z,65.00
2018-11-25T23:35:30.922Z,63.50
2018-11-25T23:36:29.900Z,61.50
2018-11-25T23:37:29.911Z,63.60
2018-11-25T23:38:29.862Z,65.50
2018-11-25T23:39:29.852Z,69.10
2018-11-25T23:40:29.854Z,67.10
2018-11-25T23:41:29.829Z,66.40
2018-11-25T23:42:29.820Z,64.20
2018-11-25T23:43:29.844Z,60.60
2018-11-25T23:44:29.792Z,61.60
2018-11-25T23:45:29.806Z,66.00
2018-11-25T23:46:29.772Z,63.40
2018-11-25T23:47:29.760Z,63.30
2018-11-25T23:48:29.751Z,65.50
2018-11-25T23:49:29.768Z,68.80
2018-11-25T23:50:29.723Z,63.70
2018-11-25T23:51:29.745Z,66.10
2018-11-25T23:52:29.702Z,60.70
2018-11-25T23:53:29.697Z,64.50
2018-11-25T23:54:29.689Z,60.50
2018-11-25T23:55:29.682Z,65.50
2018-11-25T23:56:29.660Z,63.20
2018-11-25T23:57:29.660Z,67.30
2018-11-25T23:58:29.643Z,66.00
2018-11-25T23:59:29.634Z,66.20
